sensor_id;sensor_type;location;lat;lon;timestamp;temperature;humidity
30973;DHT22;25423;45.624;13.790;2022-12-11T00:00:00;9.10;99.90
30973;DHT22;25423;45.624;13.790;2022-12-11T00:02:27;9.10;99.90
30973;DHT22;25423;45.624;13.790;2022-12-11T00:04:53;9.10;99.90
30973;DHT22;25423;45.624;13.790;2022-12-11T00:07:29;9.10;99.90
30973;DHT22;25423;45.624;13.790;2022-12-11T00:16:07;9.10;99.90
30973;DHT22;25423;45.624;13.790;2022-12-11T00:18:48;9.10;99.90
30973;DHT22;25423;45.624;13.790;2022-12-11T00:21:19;9.10;99.90
30973;DHT22;25423;45.624;13.790;2022-12-11T00:23:45;9.10;99.90
30973;DHT22;25423;45.624;13.790;2022-12-11T00:26:14;9.00;99.90
30973;DHT22;25423;45.624;13.790;2022-12-11T00:28:53;9.00;99.90
30973;DHT22;25423;45.624;13.790;2022-12-11T00:31:28;9.00;99.90
30973;DHT22;25423;45.624;13.790;2022-12-11T00:33:54;8.90;99.90
30973;DHT22;25423;45.624;13.790;2022-12-11T00:36:20;9.00;99.90
30973;DHT22;25423;45.624;13.790;2022-12-11T00:38:50;9.00;99.90
30973;DHT22;25423;45.624;13.790;2022-12-11T00:41:17;8.90;99.90
30973;DHT22;25423;45.624;13.790;2022-12-11T00:50:06;8.90;99.90
30973;DHT22;25423;45.624;13.790;2022-12-11T00:52:32;8.90;99.90
30973;DHT22;25423;45.624;13.790;2022-12-11T00:55:08;8.90;99.90
30973;DHT22;25423;45.624;13.790;2022-12-11T00:57:38;8.90;99.90
30973;DHT22;25423;45.624;13.790;2022-12-11T01:00:13;8.80;99.90
30973;DHT22;25423;45.624;13.790;2022-12-11T01:02:45;8.90;99.90
30973;DHT22;25423;45.624;13.790;2022-12-11T01:11:08;8.90;99.90
30973;DHT22;25423;45.624;13.790;2022-12-11T01:13:34;8.90;99.90
30973;DHT22;25423;45.624;13.790;2022-12-11T01:16:12;9.00;99.90
30973;DHT22;25423;45.624;13.790;2022-12-11T01:18:38;9.00;99.90
30973;DHT22;25423;45.624;13.790;2022-12-11T01:24:06;9.00;99.90
30973;DHT22;25423;45.624;13.790;2022-12-11T01:29:22;9.00;99.90
30973;DHT22;25423;45.624;13.790;2022-12-11T01:31:51;9.00;99.90
30973;DHT22;25423;45.624;13.790;2022-12-11T01:34:22;9.00;99.90
30973;DHT22;25423;45.624;13.790;2022-12-11T01:37:11;9.00;99.90
30973;DHT22;25423;45.624;13.790;2022-12-11T01:42:37;8.90;99.90
30973;DHT22;25423;45.624;13.790;2022-12-11T01:45:24;8.90;99.90
30973;DHT22;25423;45.624;13.790;2022-12-11T01:47:59;8.90;99.90
30973;DHT22;25423;45.624;13.790;2022-12-11T01:50:29;8.90;99.90
30973;DHT22;25423;45.624;13.790;2022-12-11T01:52:55;8.90;99.90
30973;DHT22;25423;45.624;13.790;2022-12-11T01:55:33;8.90;99.90
30973;DHT22;25423;45.624;13.790;2022-12-11T01:57:59;9.00;99.90
30973;DHT22;25423;45.624;13.790;2022-12-11T02:00:26;9.00;99.90
30973;DHT22;25423;45.624;13.790;2022-12-11T02:03:23;9.00;99.90
30973;DHT22;25423;45.624;13.790;2022-12-11T02:08:52;9.00;99.90
30973;DHT22;25423;45.624;13.790;2022-12-11T02:11:19;9.10;99.90
30973;DHT22;25423;45.624;13.790;2022-12-11T02:25:14;9.10;99.90
30973;DHT22;25423;45.624;13.790;2022-12-11T02:33:43;9.00;99.90
30973;DHT22;25423;45.624;13.790;2022-12-11T02:37:15;9.00;99.90
30973;DHT22;25423;45.624;13.790;2022-12-11T02:39:37;9.00;99.90
30973;DHT22;25423;45.624;13.790;2022-12-11T03:03:01;8.90;99.90
30973;DHT22;25423;45.624;13.790;2022-12-11T03:05:39;8.80;99.90
30973;DHT22;25423;45.624;13.790;2022-12-11T03:08:24;8.80;99.90
30973;DHT22;25423;45.624;13.790;2022-12-11T03:10:53;8.80;99.90
30973;DHT22;25423;45.624;13.790;2022-12-11T03:19:15;8.80;99.90
30973;DHT22;25423;45.624;13.790;2022-12-11T03:33:44;8.80;99.90
30973;DHT22;25423;45.624;13.790;2022-12-11T03:36:19;8.90;99.90
30973;DHT22;25423;45.624;13.790;2022-12-11T03:38:47;8.80;99.90
30973;DHT22;25423;45.624;13.790;2022-12-11T03:41:16;8.80;99.90
30973;DHT22;25423;45.624;13.790;2022-12-11T03:44:03;8.90;99.90
30973;DHT22;25423;45.624;13.790;2022-12-11T03:46:54;8.90;99.90
30973;DHT22;25423;45.624;13.790;2022-12-11T03:55:20;8.90;99.90
30973;DHT22;25423;45.624;13.790;2022-12-11T03:57:46;8.80;99.90
30973;DHT22;25423;45.624;13.790;2022-12-11T04:06:43;8.80;99.90
30973;DHT22;25423;45.624;13.790;2022-12-11T04:09:15;8.80;99.90
30973;DHT22;25423;45.624;13.790;2022-12-11T04:11:44;8.80;99.90
30973;DHT22;25423;45.624;13.790;2022-12-11T04:14:11;8.90;99.90
30973;DHT22;25423;45.624;13.790;2022-12-11T04:17:02;8.90;99.90
30973;DHT22;25423;45.624;13.790;2022-12-11T04:19:28;8.90;99.90
30973;DHT22;25423;45.624;13.790;2022-12-11T04:37:40;8.80;99.90
30973;DHT22;25423;45.624;13.790;2022-12-11T04:40:08;8.80;99.90
30973;DHT22;25423;45.624;13.790;2022-12-11T04:42:37;8.90;99.90
30973;DHT22;25423;45.624;13.790;2022-12-11T04:45:10;8.90;99.90
30973;DHT22;25423;45.624;13.790;2022-12-11T04:47:47;8.90;99.90
30973;DHT22;25423;45.624;13.790;2022-12-11T04:50:13;8.90;99.90
30973;DHT22;25423;45.624;13.790;2022-12-11T04:55:49;8.80;99.90
30973;DHT22;25423;45.624;13.790;2022-12-11T04:58:15;8.80;99.90
30973;DHT22;25423;45.624;13.790;2022-12-11T05:03:28;8.80;99.90
30973;DHT22;25423;45.624;13.790;2022-12-11T05:05:57;8.80;99.90
30973;DHT22;25423;45.624;13.790;2022-12-11T05:08:22;8.80;99.90
30973;DHT22;25423;45.624;13.790;2022-12-11T05:11:07;8.80;99.90
30973;DHT22;25423;45.624;13.790;2022-12-11T05:13:39;8.80;99.90
30973;DHT22;25423;45.624;13.790;2022-12-11T05:19:31;8.80;99.90
30973;DHT22;25423;45.624;13.790;2022-12-11T05:22:00;8.80;99.90
30973;DHT22;25423;45.624;13.790;2022-12-11T05:24:26;8.80;99.90
30973;DHT22;25423;45.624;13.790;2022-12-11T05:26:54;8.80;99.90
30973;DHT22;25423;45.624;13.790;2022-12-11T05:29:20;8.70;99.90
30973;DHT22;25423;45.624;13.790;2022-12-11T05:31:46;8.60;99.90
30973;DHT22;25423;45.624;13.790;2022-12-11T05:34:12;8.70;99.90
30973;DHT22;25423;45.624;13.790;2022-12-11T05:36:39;8.70;99.90
30973;DHT22;25423;45.624;13.790;2022-12-11T05:39:09;8.60;99.90
30973;DHT22;25423;45.624;13.790;2022-12-11T05:41:38;8.60;99.90
30973;DHT22;25423;45.624;13.790;2022-12-11T05:44:09;8.70;99.90
30973;DHT22;25423;45.624;13.790;2022-12-11T05:46:35;8.60;99.90
30973;DHT22;25423;45.624;13.790;2022-12-11T05:49:07;8.60;99.90
30973;DHT22;25423;45.624;13.790;2022-12-11T05:51:41;8.60;99.90
30973;DHT22;25423;45.624;13.790;2022-12-11T05:54:08;8.60;99.90
30973;DHT22;25423;45.624;13.790;2022-12-11T05:56:34;8.70;99.90
30973;DHT22;25423;45.624;13.790;2022-12-11T05:59:00;8.60;99.90
30973;DHT22;25423;45.624;13.790;2022-12-11T06:01:28;8.70;99.90
30973;DHT22;25423;45.624;13.790;2022-12-11T06:04:06;8.70;99.90
30973;DHT22;25423;45.624;13.790;2022-12-11T06:06:32;8.60;99.90
30973;DHT22;25423;45.624;13.790;2022-12-11T06:08:58;8.70;99.90
30973;DHT22;25423;45.624;13.790;2022-12-11T06:11:28;8.70;99.90
30973;DHT22;25423;45.624;13.790;2022-12-11T06:13:54;8.70;99.90
30973;DHT22;25423;45.624;13.790;2022-12-11T06:16:29;8.70;99.90
30973;DHT22;25423;45.624;13.790;2022-12-11T06:18:55;8.70;99.90
30973;DHT22;25423;45.624;13.790;2022-12-11T06:21:29;8.70;99.90
30973;DHT22;25423;45.624;13.790;2022-12-11T06:23:56;8.70;99.90
30973;DHT22;25423;45.624;13.790;2022-12-11T06:26:36;8.60;99.90
30973;DHT22;25423;45.624;13.790;2022-12-11T06:29:01;8.70;99.90
30973;DHT22;25423;45.624;13.790;2022-12-11T06:34:34;8.70;99.90
30973;DHT22;25423;45.624;13.790;2022-12-11T06:37:05;8.70;99.90
30973;DHT22;25423;45.624;13.790;2022-12-11T06:39:31;8.80;99.90
30973;DHT22;25423;45.624;13.790;2022-12-11T06:42:17;8.80;99.90
30973;DHT22;25423;45.624;13.790;2022-12-11T06:44:43;8.70;99.90
30973;DHT22;25423;45.624;13.790;2022-12-11T06:47:09;8.70;99.90
30973;DHT22;25423;45.624;13.790;2022-12-11T06:49:37;8.80;99.90
30973;DHT22;25423;45.624;13.790;2022-12-11T06:52:04;8.80;99.90
30973;DHT22;25423;45.624;13.790;2022-12-11T06:55:01;8.80;99.90
30973;DHT22;25423;45.624;13.790;2022-12-11T06:57:30;8.90;99.90
30973;DHT22;25423;45.624;13.790;2022-12-11T07:00:03;8.90;99.90
30973;DHT22;25423;45.624;13.790;2022-12-11T07:02:29;8.90;99.90
30973;DHT22;25423;45.624;13.790;2022-12-11T07:04:55;8.90;99.90
30973;DHT22;25423;45.624;13.790;2022-12-11T07:07:24;9.00;99.90
30973;DHT22;25423;45.624;13.790;2022-12-11T07:09:50;9.10;99.90
30973;DHT22;25423;45.624;13.790;2022-12-11T07:15:17;9.10;99.90
30973;DHT22;25423;45.624;13.790;2022-12-11T07:17:43;9.10;99.90
30973;DHT22;25423;45.624;13.790;2022-12-11T07:20:09;9.10;99.90
30973;DHT22;25423;45.624;13.790;2022-12-11T07:22:38;9.10;99.90
30973;DHT22;25423;45.624;13.790;2022-12-11T07:28:10;9.30;99.90
30973;DHT22;25423;45.624;13.790;2022-12-11T07:30:37;9.20;99.90
30973;DHT22;25423;45.624;13.790;2022-12-11T07:33:03;9.20;99.90
30973;DHT22;25423;45.624;13.790;2022-12-11T07:35:29;9.20;99.90
30973;DHT22;25423;45.624;13.790;2022-12-11T07:37:57;9.20;99.90
30973;DHT22;25423;45.624;13.790;2022-12-11T07:40:26;9.10;99.90
30973;DHT22;25423;45.624;13.790;2022-12-11T07:42:52;9.20;99.90
30973;DHT22;25423;45.624;13.790;2022-12-11T07:45:17;9.10;99.90
30973;DHT22;25423;45.624;13.790;2022-12-11T07:47:46;9.10;99.90
30973;DHT22;25423;45.624;13.790;2022-12-11T07:50:12;9.10;99.90
30973;DHT22;25423;45.624;13.790;2022-12-11T07:52:38;9.10;99.90
30973;DHT22;25423;45.624;13.790;2022-12-11T07:55:03;9.10;99.90
30973;DHT22;25423;45.624;13.790;2022-12-11T07:57:49;9.10;99.90
30973;DHT22;25423;45.624;13.790;2022-12-11T08:00:25;9.10;99.90
30973;DHT22;25423;45.624;13.790;2022-12-11T08:02:51;9.00;99.90
30973;DHT22;25423;45.624;13.790;2022-12-11T08:05:35;9.00;99.90
30973;DHT22;25423;45.624;13.790;2022-12-11T08:08:01;9.00;99.90
30973;DHT22;25423;45.624;13.790;2022-12-11T08:10:27;9.00;99.90
30973;DHT22;25423;45.624;13.790;2022-12-11T08:12:53;8.90;99.90
30973;DHT22;25423;45.624;13.790;2022-12-11T08:15:24;8.80;99.90
30973;DHT22;25423;45.624;13.790;2022-12-11T08:17:50;8.70;99.90
30973;DHT22;25423;45.624;13.790;2022-12-11T08:20:25;8.80;99.90
30973;DHT22;25423;45.624;13.790;2022-12-11T08:22:51;8.70;99.90
30973;DHT22;25423;45.624;13.790;2022-12-11T08:25:19;8.70;99.90
30973;DHT22;25423;45.624;13.790;2022-12-11T08:27:45;8.50;99.90
30973;DHT22;25423;45.624;13.790;2022-12-11T08:30:11;8.50;99.90
30973;DHT22;25423;45.624;13.790;2022-12-11T08:32:37;8.50;99.90
30973;DHT22;25423;45.624;13.790;2022-12-11T08:35:06;8.40;99.90
30973;DHT22;25423;45.624;13.790;2022-12-11T08:37:32;8.40;99.90
30973;DHT22;25423;45.624;13.790;2022-12-11T08:39:58;8.30;99.90
30973;DHT22;25423;45.624;13.790;2022-12-11T08:42:24;8.30;99.90
30973;DHT22;25423;45.624;13.790;2022-12-11T08:44:57;8.30;99.90
30973;DHT22;25423;45.624;13.790;2022-12-11T08:47:22;8.20;99.90
30973;DHT22;25423;45.624;13.790;2022-12-11T08:49:48;8.20;99.90
30973;DHT22;25423;45.624;13.790;2022-12-11T08:52:14;8.10;99.90
30973;DHT22;25423;45.624;13.790;2022-12-11T08:54:39;8.00;99.90
30973;DHT22;25423;45.624;13.790;2022-12-11T08:57:05;8.00;99.90
30973;DHT22;25423;45.624;13.790;2022-12-11T08:59:33;7.80;99.90
30973;DHT22;25423;45.624;13.790;2022-12-11T09:01:59;7.70;99.90
30973;DHT22;25423;45.624;13.790;2022-12-11T09:04:25;7.60;99.90
30973;DHT22;25423;45.624;13.790;2022-12-11T09:09:37;7.40;99.90
30973;DHT22;25423;45.624;13.790;2022-12-11T09:12:11;7.30;99.90
30973;DHT22;25423;45.624;13.790;2022-12-11T09:14:38;7.30;99.90
30973;DHT22;25423;45.624;13.790;2022-12-11T09:17:22;7.20;99.90
30973;DHT22;25423;45.624;13.790;2022-12-11T09:19:48;7.20;99.90
30973;DHT22;25423;45.624;13.790;2022-12-11T09:22:14;7.30;99.90
30973;DHT22;25423;45.624;13.790;2022-12-11T09:24:40;7.30;99.90
30973;DHT22;25423;45.624;13.790;2022-12-11T09:27:11;7.30;99.90
30973;DHT22;25423;45.624;13.790;2022-12-11T09:29:37;7.30;99.90
30973;DHT22;25423;45.624;13.790;2022-12-11T09:32:03;7.40;99.90
30973;DHT22;25423;45.624;13.790;2022-12-11T09:34:29;7.50;99.90
30973;DHT22;25423;45.624;13.790;2022-12-11T09:36:56;7.50;99.90
30973;DHT22;25423;45.624;13.790;2022-12-11T09:39:25;7.60;99.90
30973;DHT22;25423;45.624;13.790;2022-12-11T09:47:24;7.70;99.90
30973;DHT22;25423;45.624;13.790;2022-12-11T09:50:05;7.80;99.90
30973;DHT22;25423;45.624;13.790;2022-12-11T09:55:20;7.80;99.90
30973;DHT22;25423;45.624;13.790;2022-12-11T10:00:46;7.90;99.90
30973;DHT22;25423;45.624;13.790;2022-12-11T10:16:56;7.90;99.90
30973;DHT22;25423;45.624;13.790;2022-12-11T10:19:32;7.90;99.90
30973;DHT22;25423;45.624;13.790;2022-12-11T10:21:59;7.80;99.90
30973;DHT22;25423;45.624;13.790;2022-12-11T10:26:55;7.90;99.90
30973;DHT22;25423;45.624;13.790;2022-12-11T10:29:26;7.90;99.90
30973;DHT22;25423;45.624;13.790;2022-12-11T10:31:55;7.80;99.90
30973;DHT22;25423;45.624;13.790;2022-12-11T10:37:12;7.80;99.90
30973;DHT22;25423;45.624;13.790;2022-12-11T10:39:48;7.80;99.90
30973;DHT22;25423;45.624;13.790;2022-12-11T10:42:18;7.70;99.90
30973;DHT22;25423;45.624;13.790;2022-12-11T10:44:58;7.60;99.90
30973;DHT22;25423;45.624;13.790;2022-12-11T10:47:24;7.50;99.90
30973;DHT22;25423;45.624;13.790;2022-12-11T10:50:00;7.50;99.90
30973;DHT22;25423;45.624;13.790;2022-12-11T10:52:28;7.40;99.90
30973;DHT22;25423;45.624;13.790;2022-12-11T10:55:00;7.50;99.90
30973;DHT22;25423;45.624;13.790;2022-12-11T10:57:27;7.50;99.90
30973;DHT22;25423;45.624;13.790;2022-12-11T10:59:54;7.50;99.90
30973;DHT22;25423;45.624;13.790;2022-12-11T11:04:45;7.50;99.90
30973;DHT22;25423;45.624;13.790;2022-12-11T11:09:38;7.40;99.90
30973;DHT22;25423;45.624;13.790;2022-12-11T11:12:26;7.30;99.90
30973;DHT22;25423;45.624;13.790;2022-12-11T11:15:01;7.20;99.90
30973;DHT22;25423;45.624;13.790;2022-12-11T11:17:31;7.20;99.90
30973;DHT22;25423;45.624;13.790;2022-12-11T11:19:58;7.00;99.90
30973;DHT22;25423;45.624;13.790;2022-12-11T11:22:25;7.00;99.90
30973;DHT22;25423;45.624;13.790;2022-12-11T11:27:27;6.90;99.90
30973;DHT22;25423;45.624;13.790;2022-12-11T11:29:54;6.90;99.90
30973;DHT22;25423;45.624;13.790;2022-12-11T11:32:30;6.90;99.90
30973;DHT22;25423;45.624;13.790;2022-12-11T11:37:34;6.70;99.90
30973;DHT22;25423;45.624;13.790;2022-12-11T11:40:23;6.50;99.90
30973;DHT22;25423;45.624;13.790;2022-12-11T11:42:48;6.50;99.90
30973;DHT22;25423;45.624;13.790;2022-12-11T11:45:16;6.40;99.90
30973;DHT22;25423;45.624;13.790;2022-12-11T11:47:50;6.40;99.90
30973;DHT22;25423;45.624;13.790;2022-12-11T11:50:20;6.40;99.90
30973;DHT22;25423;45.624;13.790;2022-12-11T11:55:45;6.30;99.90
30973;DHT22;25423;45.624;13.790;2022-12-11T12:00:33;6.30;99.90
30973;DHT22;25423;45.624;13.790;2022-12-11T12:03:00;6.30;99.90
30973;DHT22;25423;45.624;13.790;2022-12-11T12:05:34;6.30;99.90
30973;DHT22;25423;45.624;13.790;2022-12-11T12:10:50;6.30;99.90
30973;DHT22;25423;45.624;13.790;2022-12-11T12:13:22;6.30;99.90
30973;DHT22;25423;45.624;13.790;2022-12-11T12:15:54;6.30;99.90
30973;DHT22;25423;45.624;13.790;2022-12-11T12:21:08;6.30;99.90
30973;DHT22;25423;45.624;13.790;2022-12-11T12:26:30;6.30;99.90
30973;DHT22;25423;45.624;13.790;2022-12-11T12:29:01;6.40;99.90
30973;DHT22;25423;45.624;13.790;2022-12-11T12:44:15;6.30;99.90
30973;DHT22;25423;45.624;13.790;2022-12-11T12:46:50;6.40;99.90
30973;DHT22;25423;45.624;13.790;2022-12-11T12:49:59;6.40;99.90
30973;DHT22;25423;45.624;13.790;2022-12-11T12:52:09;6.40;99.90
30973;DHT22;25423;45.624;13.790;2022-12-11T12:54:35;6.20;99.90
30973;DHT22;25423;45.624;13.790;2022-12-11T12:57:02;6.30;99.90
30973;DHT22;25423;45.624;13.790;2022-12-11T12:59:28;6.40;99.90
30973;DHT22;25423;45.624;13.790;2022-12-11T13:02:03;6.40;99.90
30973;DHT22;25423;45.624;13.790;2022-12-11T13:04:37;6.40;99.90
30973;DHT22;25423;45.624;13.790;2022-12-11T13:07:19;6.40;99.90
30973;DHT22;25423;45.624;13.790;2022-12-11T13:12:29;6.40;99.90
30973;DHT22;25423;45.624;13.790;2022-12-11T13:14:55;6.50;99.90
30973;DHT22;25423;45.624;13.790;2022-12-11T13:17:23;6.50;99.90
30973;DHT22;25423;45.624;13.790;2022-12-11T13:19:50;6.50;99.90
30973;DHT22;25423;45.624;13.790;2022-12-11T13:22:24;6.60;99.90
30973;DHT22;25423;45.624;13.790;2022-12-11T13:27:23;6.50;99.90
30973;DHT22;25423;45.624;13.790;2022-12-11T13:29:49;6.50;99.90
30973;DHT22;25423;45.624;13.790;2022-12-11T13:34:41;6.20;99.90
30973;DHT22;25423;45.624;13.790;2022-12-11T13:37:23;6.20;99.90
30973;DHT22;25423;45.624;13.790;2022-12-11T13:39:51;6.10;99.90
30973;DHT22;25423;45.624;13.790;2022-12-11T13:42:24;6.00;99.90
30973;DHT22;25423;45.624;13.790;2022-12-11T13:44:52;5.90;99.90
30973;DHT22;25423;45.624;13.790;2022-12-11T13:47:18;5.80;99.90
30973;DHT22;25423;45.624;13.790;2022-12-11T13:49:46;5.70;99.90
30973;DHT22;25423;45.624;13.790;2022-12-11T13:52:17;5.60;99.90
30973;DHT22;25423;45.624;13.790;2022-12-11T13:54:50;5.60;99.90
30973;DHT22;25423;45.624;13.790;2022-12-11T13:57:21;5.50;99.90
30973;DHT22;25423;45.624;13.790;2022-12-11T13:59:48;5.50;99.90
30973;DHT22;25423;45.624;13.790;2022-12-11T14:04:40;5.50;99.90
30973;DHT22;25423;45.624;13.790;2022-12-11T14:07:06;5.40;99.90
30973;DHT22;25423;45.624;13.790;2022-12-11T14:09:32;5.50;99.90
30973;DHT22;25423;45.624;13.790;2022-12-11T14:12:01;5.50;99.90
30973;DHT22;25423;45.624;13.790;2022-12-11T14:14:31;5.40;99.90
30973;DHT22;25423;45.624;13.790;2022-12-11T14:17:10;5.40;99.90
30973;DHT22;25423;45.624;13.790;2022-12-11T14:19:38;5.30;99.90
30973;DHT22;25423;45.624;13.790;2022-12-11T14:22:04;5.30;99.90
30973;DHT22;25423;45.624;13.790;2022-12-11T14:24:32;5.20;99.90
30973;DHT22;25423;45.624;13.790;2022-12-11T14:26:57;5.30;99.90
30973;DHT22;25423;45.624;13.790;2022-12-11T14:29:24;5.30;99.90
30973;DHT22;25423;45.624;13.790;2022-12-11T14:31:50;5.10;99.90
30973;DHT22;25423;45.624;13.790;2022-12-11T14:34:18;5.10;99.90
30973;DHT22;25423;45.624;13.790;2022-12-11T14:36:45;5.10;99.90
30973;DHT22;25423;45.624;13.790;2022-12-11T14:44:03;5.00;99.90
30973;DHT22;25423;45.624;13.790;2022-12-11T14:46:41;4.90;99.90
30973;DHT22;25423;45.624;13.790;2022-12-11T14:52:10;5.10;99.90
30973;DHT22;25423;45.624;13.790;2022-12-11T14:54:37;5.10;99.90
30973;DHT22;25423;45.624;13.790;2022-12-11T14:57:04;5.20;99.90
30973;DHT22;25423;45.624;13.790;2022-12-11T14:59:31;5.20;99.90
30973;DHT22;25423;45.624;13.790;2022-12-11T15:02:17;5.10;99.90
30973;DHT22;25423;45.624;13.790;2022-12-11T15:04:45;5.20;99.90
30973;DHT22;25423;45.624;13.790;2022-12-11T15:07:21;5.30;99.90
30973;DHT22;25423;45.624;13.790;2022-12-11T15:09:47;5.30;99.90
30973;DHT22;25423;45.624;13.790;2022-12-11T15:12:16;5.30;99.90
30973;DHT22;25423;45.624;13.790;2022-12-11T15:14:47;5.40;99.90
30973;DHT22;25423;45.624;13.790;2022-12-11T15:17:20;5.40;99.90
30973;DHT22;25423;45.624;13.790;2022-12-11T15:19:50;5.50;99.90
30973;DHT22;25423;45.624;13.790;2022-12-11T15:22:16;5.50;99.90
30973;DHT22;25423;45.624;13.790;2022-12-11T15:24:42;5.50;99.90
30973;DHT22;25423;45.624;13.790;2022-12-11T15:27:24;5.40;99.90
30973;DHT22;25423;45.624;13.790;2022-12-11T15:29:50;5.50;99.90
30973;DHT22;25423;45.624;13.790;2022-12-11T15:32:16;5.50;99.90
30973;DHT22;25423;45.624;13.790;2022-12-11T15:34:47;5.50;99.90
30973;DHT22;25423;45.624;13.790;2022-12-11T15:37:26;5.40;99.90
30973;DHT22;25423;45.624;13.790;2022-12-11T15:39:53;5.40;99.90
30973;DHT22;25423;45.624;13.790;2022-12-11T15:42:30;5.40;99.90
30973;DHT22;25423;45.624;13.790;2022-12-11T15:44:59;5.40;99.90
30973;DHT22;25423;45.624;13.790;2022-12-11T15:47:26;5.50;99.90
30973;DHT22;25423;45.624;13.790;2022-12-11T15:49:56;5.60;99.90
30973;DHT22;25423;45.624;13.790;2022-12-11T15:52:22;5.60;99.90
30973;DHT22;25423;45.624;13.790;2022-12-11T15:54:48;5.60;99.90
30973;DHT22;25423;45.624;13.790;2022-12-11T15:57:20;5.70;99.90
30973;DHT22;25423;45.624;13.790;2022-12-11T15:59:46;5.60;99.90
30973;DHT22;25423;45.624;13.790;2022-12-11T16:02:41;5.70;99.90
30973;DHT22;25423;45.624;13.790;2022-12-11T16:05:07;5.70;99.90
30973;DHT22;25423;45.624;13.790;2022-12-11T16:07:36;5.60;99.90
30973;DHT22;25423;45.624;13.790;2022-12-11T16:10:03;5.60;99.90
30973;DHT22;25423;45.624;13.790;2022-12-11T16:12:37;5.50;99.90
30973;DHT22;25423;45.624;13.790;2022-12-11T16:15:03;5.50;99.90
30973;DHT22;25423;45.624;13.790;2022-12-11T16:17:28;5.40;99.90
30973;DHT22;25423;45.624;13.790;2022-12-11T16:20:07;5.30;99.90
30973;DHT22;25423;45.624;13.790;2022-12-11T16:22:33;5.20;99.90
30973;DHT22;25423;45.624;13.790;2022-12-11T16:24:59;5.10;99.90
30973;DHT22;25423;45.624;13.790;2022-12-11T16:27:25;5.10;99.90
30973;DHT22;25423;45.624;13.790;2022-12-11T16:29:56;5.00;99.90
30973;DHT22;25423;45.624;13.790;2022-12-11T16:32:22;4.90;99.90
30973;DHT22;25423;45.624;13.790;2022-12-11T16:34:48;4.90;99.90
30973;DHT22;25423;45.624;13.790;2022-12-11T16:37:23;4.80;99.90
30973;DHT22;25423;45.624;13.790;2022-12-11T16:39:52;4.70;99.90
30973;DHT22;25423;45.624;13.790;2022-12-11T16:42:17;4.70;99.90
30973;DHT22;25423;45.624;13.790;2022-12-11T16:44:43;4.70;99.90
30973;DHT22;25423;45.624;13.790;2022-12-11T16:47:09;4.70;99.90
30973;DHT22;25423;45.624;13.790;2022-12-11T16:49:35;4.80;99.90
30973;DHT22;25423;45.624;13.790;2022-12-11T16:52:03;4.80;99.90
30973;DHT22;25423;45.624;13.790;2022-12-11T16:54:29;4.80;99.90
30973;DHT22;25423;45.624;13.790;2022-12-11T16:57:15;4.80;99.90
30973;DHT22;25423;45.624;13.790;2022-12-11T17:03:18;4.90;99.90
30973;DHT22;25423;45.624;13.790;2022-12-11T17:05:44;4.90;99.90
30973;DHT22;25423;45.624;13.790;2022-12-11T17:08:10;4.90;99.90
30973;DHT22;25423;45.624;13.790;2022-12-11T17:10:45;4.90;99.90
30973;DHT22;25423;45.624;13.790;2022-12-11T17:13:13;4.90;99.90
30973;DHT22;25423;45.624;13.790;2022-12-11T17:15:42;4.90;99.90
30973;DHT22;25423;45.624;13.790;2022-12-11T17:18:09;4.80;99.90
30973;DHT22;25423;45.624;13.790;2022-12-11T17:20:54;4.80;99.90
30973;DHT22;25423;45.624;13.790;2022-12-11T17:23:24;4.80;99.90
30973;DHT22;25423;45.624;13.790;2022-12-11T17:25:50;4.70;99.90
30973;DHT22;25423;45.624;13.790;2022-12-11T17:28:16;4.70;99.90
30973;DHT22;25423;45.624;13.790;2022-12-11T17:30:44;4.60;99.90
30973;DHT22;25423;45.624;13.790;2022-12-11T17:36:14;4.60;99.90
30973;DHT22;25423;45.624;13.790;2022-12-11T17:38:40;4.60;99.90
30973;DHT22;25423;45.624;13.790;2022-12-11T17:41:06;4.60;99.90
30973;DHT22;25423;45.624;13.790;2022-12-11T17:43:55;4.50;99.90
30973;DHT22;25423;45.624;13.790;2022-12-11T17:46:21;4.50;99.90
30973;DHT22;25423;45.624;13.790;2022-12-11T17:51:51;4.50;99.90
30973;DHT22;25423;45.624;13.790;2022-12-11T17:54:20;4.60;99.90
30973;DHT22;25423;45.624;13.790;2022-12-11T17:56:46;4.60;99.90
30973;DHT22;25423;45.624;13.790;2022-12-11T17:59:12;4.60;99.90
30973;DHT22;25423;45.624;13.790;2022-12-11T18:01:38;4.50;99.90
30973;DHT22;25423;45.624;13.790;2022-12-11T18:04:03;4.50;99.90
30973;DHT22;25423;45.624;13.790;2022-12-11T18:06:29;4.50;99.90
30973;DHT22;25423;45.624;13.790;2022-12-11T18:08:55;4.60;99.90
30973;DHT22;25423;45.624;13.790;2022-12-11T18:11:21;4.50;99.90
30973;DHT22;25423;45.624;13.790;2022-12-11T18:13:47;4.50;99.90
30973;DHT22;25423;45.624;13.790;2022-12-11T18:16:18;4.50;99.90
30973;DHT22;25423;45.624;13.790;2022-12-11T18:18:44;4.40;99.90
30973;DHT22;25423;45.624;13.790;2022-12-11T18:21:11;4.40;99.90
30973;DHT22;25423;45.624;13.790;2022-12-11T18:23:37;4.40;99.90
30973;DHT22;25423;45.624;13.790;2022-12-11T18:26:03;4.40;99.90
30973;DHT22;25423;45.624;13.790;2022-12-11T18:28:31;4.50;99.90
30973;DHT22;25423;45.624;13.790;2022-12-11T18:30:58;4.50;99.90
30973;DHT22;25423;45.624;13.790;2022-12-11T18:33:23;4.50;99.90
30973;DHT22;25423;45.624;13.790;2022-12-11T18:35:49;4.50;99.90
30973;DHT22;25423;45.624;13.790;2022-12-11T18:38:16;4.50;99.90
30973;DHT22;25423;45.624;13.790;2022-12-11T18:40:41;4.50;99.90
30973;DHT22;25423;45.624;13.790;2022-12-11T18:43:10;4.60;99.90
30973;DHT22;25423;45.624;13.790;2022-12-11T18:45:39;4.60;99.90
30973;DHT22;25423;45.624;13.790;2022-12-11T18:48:06;4.60;99.90
30973;DHT22;25423;45.624;13.790;2022-12-11T18:50:33;4.60;99.90
30973;DHT22;25423;45.624;13.790;2022-12-11T18:52:59;4.60;99.90
30973;DHT22;25423;45.624;13.790;2022-12-11T18:55:27;4.60;99.90
30973;DHT22;25423;45.624;13.790;2022-12-11T18:57:53;4.70;99.90
30973;DHT22;25423;45.624;13.790;2022-12-11T19:00:19;4.70;99.90
30973;DHT22;25423;45.624;13.790;2022-12-11T19:02:51;4.60;99.90
30973;DHT22;25423;45.624;13.790;2022-12-11T19:05:17;4.70;99.90
30973;DHT22;25423;45.624;13.790;2022-12-11T19:07:43;4.60;99.90
30973;DHT22;25423;45.624;13.790;2022-12-11T19:10:09;4.60;99.90
30973;DHT22;25423;45.624;13.790;2022-12-11T19:12:34;4.70;99.90
30973;DHT22;25423;45.624;13.790;2022-12-11T19:15:00;4.70;99.90
30973;DHT22;25423;45.624;13.790;2022-12-11T19:17:26;4.70;99.90
30973;DHT22;25423;45.624;13.790;2022-12-11T19:19:52;4.60;99.90
30973;DHT22;25423;45.624;13.790;2022-12-11T19:22:18;4.60;99.90
30973;DHT22;25423;45.624;13.790;2022-12-11T19:24:44;4.60;99.90
30973;DHT22;25423;45.624;13.790;2022-12-11T19:27:09;4.60;99.90
30973;DHT22;25423;45.624;13.790;2022-12-11T19:29:35;4.60;99.90
30973;DHT22;25423;45.624;13.790;2022-12-11T19:32:02;4.60;99.90
30973;DHT22;25423;45.624;13.790;2022-12-11T19:34:32;4.60;99.90